sensor_id;sensor_type;location;lat;lon;timestamp;P1;durP1;ratioP1;P2;durP2;ratioP2
58842;SDS011;44614;54.356;10.100;2022-10-31T00:00:49;25.70;;;12.38;;
58842;SDS011;44614;54.356;10.100;2022-10-31T00:03:15;23.83;;;12.18;;
58842;SDS011;44614;54.356;10.100;2022-10-31T00:05:42;19.35;;;11.55;;
58842;SDS011;44614;54.356;10.100;2022-10-31T00:08:08;17.25;;;10.50;;
58842;SDS011;44614;54.356;10.100;2022-10-31T00:10:33;22.95;;;11.23;;
58842;SDS011;44614;54.356;10.100;2022-10-31T00:13:02;19.27;;;9.98;;
58842;SDS011;44614;54.356;10.100;2022-10-31T00:15:27;26.15;;;10.85;;
58842;SDS011;44614;54.356;10.100;2022-10-31T00:17:53;25.40;;;11.27;;
58842;SDS011;44614;54.356;10.100;2022-10-31T00:20:18;24.38;;;11.65;;
58842;SDS011;44614;54.356;10.100;2022-10-31T00:22:43;22.73;;;10.75;;
58842;SDS011;44614;54.356;10.100;2022-10-31T00:25:08;18.77;;;11.35;;
58842;SDS011;44614;54.356;10.100;2022-10-31T00:27:34;27.55;;;12.35;;
58842;SDS011;44614;54.356;10.100;2022-10-31T00:29:59;26.73;;;11.73;;
58842;SDS011;44614;54.356;10.100;2022-10-31T00:32:24;25.52;;;12.82;;
58842;SDS011;44614;54.356;10.100;2022-10-31T00:34:50;21.73;;;11.98;;
58842;SDS011;44614;54.356;10.100;2022-10-31T00:37:15;22.38;;;12.68;;
58842;SDS011;44614;54.356;10.100;2022-10-31T00:39:40;23.13;;;12.90;;
58842;SDS011;44614;54.356;10.100;2022-10-31T00:42:05;20.88;;;12.05;;
58842;SDS011;44614;54.356;10.100;2022-10-31T00:44:31;24.75;;;12.75;;
58842;SDS011;44614;54.356;10.100;2022-10-31T00:46:56;25.40;;;12.07;;
58842;SDS011;44614;54.356;10.100;2022-10-31T00:49:21;26.08;;;12.20;;
58842;SDS011;44614;54.356;10.100;2022-10-31T00:51:47;27.92;;;12.20;;
58842;SDS011;44614;54.356;10.100;2022-10-31T00:54:12;28.30;;;13.77;;
58842;SDS011;44614;54.356;10.100;2022-10-31T00:56:37;27.13;;;15.03;;
58842;SDS011;44614;54.356;10.100;2022-10-31T00:59:02;27.92;;;13.65;;
58842;SDS011;44614;54.356;10.100;2022-10-31T01:01:28;24.30;;;12.10;;
58842;SDS011;44614;54.356;10.100;2022-10-31T01:03:53;19.60;;;11.88;;
58842;SDS011;44614;54.356;10.100;2022-10-31T01:06:18;16.85;;;10.55;;
58842;SDS011;44614;54.356;10.100;2022-10-31T01:08:44;21.58;;;11.88;;
58842;SDS011;44614;54.356;10.100;2022-10-31T01:11:13;25.90;;;11.80;;
58842;SDS011;44614;54.356;10.100;2022-10-31T01:13:41;22.73;;;12.50;;
58842;SDS011;44614;54.356;10.100;2022-10-31T01:16:07;24.70;;;12.23;;
58842;SDS011;44614;54.356;10.100;2022-10-31T01:18:35;21.70;;;11.80;;
58842;SDS011;44614;54.356;10.100;2022-10-31T01:21:02;25.45;;;11.80;;
58842;SDS011;44614;54.356;10.100;2022-10-31T01:23:30;24.50;;;12.07;;
58842;SDS011;44614;54.356;10.100;2022-10-31T01:26:03;20.65;;;10.77;;
58842;SDS011;44614;54.356;10.100;2022-10-31T01:28:37;23.67;;;11.98;;
58842;SDS011;44614;54.356;10.100;2022-10-31T01:31:05;22.52;;;11.63;;
58842;SDS011;44614;54.356;10.100;2022-10-31T01:33:32;20.98;;;10.43;;
58842;SDS011;44614;54.356;10.100;2022-10-31T01:35:57;22.33;;;12.82;;
58842;SDS011;44614;54.356;10.100;2022-10-31T01:38:23;20.88;;;10.95;;
58842;SDS011;44614;54.356;10.100;2022-10-31T01:40:49;25.60;;;12.43;;
58842;SDS011;44614;54.356;10.100;2022-10-31T01:43:15;21.75;;;12.90;;
58842;SDS011;44614;54.356;10.100;2022-10-31T01:45:41;23.55;;;10.75;;
58842;SDS011;44614;54.356;10.100;2022-10-31T01:48:15;26.67;;;12.45;;
58842;SDS011;44614;54.356;10.100;2022-10-31T01:50:44;20.17;;;11.50;;
58842;SDS011;44614;54.356;10.100;2022-10-31T01:53:13;23.80;;;11.90;;
58842;SDS011;44614;54.356;10.100;2022-10-31T01:55:41;26.52;;;12.90;;
58842;SDS011;44614;54.356;10.100;2022-10-31T01:58:09;34.75;;;15.00;;
58842;SDS011;44614;54.356;10.100;2022-10-31T02:00:39;27.48;;;13.57;;
58842;SDS011;44614;54.356;10.100;2022-10-31T02:03:08;31.52;;;15.27;;
58842;SDS011;44614;54.356;10.100;2022-10-31T02:05:33;34.83;;;16.65;;
58842;SDS011;44614;54.356;10.100;2022-10-31T02:08:06;33.97;;;14.25;;
58842;SDS011;44614;54.356;10.100;2022-10-31T02:10:38;41.95;;;15.25;;
58842;SDS011;44614;54.356;10.100;2022-10-31T02:13:05;35.93;;;18.07;;
58842;SDS011;44614;54.356;10.100;2022-10-31T02:15:32;39.67;;;17.15;;
58842;SDS011;44614;54.356;10.100;2022-10-31T02:17:59;31.55;;;15.07;;
58842;SDS011;44614;54.356;10.100;2022-10-31T02:20:26;42.35;;;16.77;;
58842;SDS011;44614;54.356;10.100;2022-10-31T02:29:19;43.30;;;18.42;;
58842;SDS011;44614;54.356;10.100;2022-10-31T02:34:26;34.53;;;16.40;;
58842;SDS011;44614;54.356;10.100;2022-10-31T02:39:34;32.28;;;15.50;;
58842;SDS011;44614;54.356;10.100;2022-10-31T02:42:09;37.25;;;16.55;;
58842;SDS011;44614;54.356;10.100;2022-10-31T02:47:26;40.38;;;16.38;;
58842;SDS011;44614;54.356;10.100;2022-10-31T02:49:56;33.70;;;14.80;;
58842;SDS011;44614;54.356;10.100;2022-10-31T02:52:29;43.70;;;16.77;;
58842;SDS011;44614;54.356;10.100;2022-10-31T02:54:56;45.92;;;16.67;;
58842;SDS011;44614;54.356;10.100;2022-10-31T02:57:31;45.97;;;17.23;;
58842;SDS011;44614;54.356;10.100;2022-10-31T03:00:02;47.00;;;16.30;;
58842;SDS011;44614;54.356;10.100;2022-10-31T03:08:06;104.15;;;19.17;;
58842;SDS011;44614;54.356;10.100;2022-10-31T03:10:47;81.47;;;20.38;;
58842;SDS011;44614;54.356;10.100;2022-10-31T03:15:51;37.83;;;15.02;;
58842;SDS011;44614;54.356;10.100;2022-10-31T03:23:39;128.18;;;21.67;;
58842;SDS011;44614;54.356;10.100;2022-10-31T03:26:07;83.63;;;19.08;;
58842;SDS011;44614;54.356;10.100;2022-10-31T03:28:38;76.30;;;19.02;;
58842;SDS011;44614;54.356;10.100;2022-10-31T03:31:09;72.68;;;19.15;;
58842;SDS011;44614;54.356;10.100;2022-10-31T03:33:36;36.45;;;14.55;;
58842;SDS011;44614;54.356;10.100;2022-10-31T03:36:04;46.55;;;16.25;;
58842;SDS011;44614;54.356;10.100;2022-10-31T03:38:32;67.28;;;15.77;;
58842;SDS011;44614;54.356;10.100;2022-10-31T03:41:00;30.23;;;14.05;;
58842;SDS011;44614;54.356;10.100;2022-10-31T03:43:30;46.40;;;15.60;;
58842;SDS011;44614;54.356;10.100;2022-10-31T03:46:01;49.25;;;16.45;;
58842;SDS011;44614;54.356;10.100;2022-10-31T03:48:28;33.70;;;14.30;;
58842;SDS011;44614;54.356;10.100;2022-10-31T03:53:52;62.53;;;18.83;;
58842;SDS011;44614;54.356;10.100;2022-10-31T03:56:27;64.10;;;19.10;;
58842;SDS011;44614;54.356;10.100;2022-10-31T03:59:01;43.75;;;13.70;;
58842;SDS011;44614;54.356;10.100;2022-10-31T04:01:33;59.53;;;15.88;;
58842;SDS011;44614;54.356;10.100;2022-10-31T04:04:02;58.35;;;16.58;;
58842;SDS011;44614;54.356;10.100;2022-10-31T04:06:28;45.53;;;15.52;;
58842;SDS011;44614;54.356;10.100;2022-10-31T04:08:59;46.53;;;16.40;;
58842;SDS011;44614;54.356;10.100;2022-10-31T04:11:29;44.05;;;15.27;;
58842;SDS011;44614;54.356;10.100;2022-10-31T04:13:58;82.00;;;19.05;;
58842;SDS011;44614;54.356;10.100;2022-10-31T04:16:26;44.90;;;17.58;;
58842;SDS011;44614;54.356;10.100;2022-10-31T04:18:52;47.87;;;16.70;;
58842;SDS011;44614;54.356;10.100;2022-10-31T04:21:18;66.72;;;18.23;;
58842;SDS011;44614;54.356;10.100;2022-10-31T04:23:43;29.85;;;14.80;;
58842;SDS011;44614;54.356;10.100;2022-10-31T04:26:10;30.08;;;14.70;;
58842;SDS011;44614;54.356;10.100;2022-10-31T04:28:37;76.55;;;16.98;;
58842;SDS011;44614;54.356;10.100;2022-10-31T04:31:02;80.20;;;19.85;;
58842;SDS011;44614;54.356;10.100;2022-10-31T04:33:27;47.78;;;15.20;;
58842;SDS011;44614;54.356;10.100;2022-10-31T04:35:52;72.63;;;17.48;;
58842;SDS011;44614;54.356;10.100;2022-10-31T04:38:18;50.10;;;16.27;;
58842;SDS011;44614;54.356;10.100;2022-10-31T04:40:44;27.02;;;12.38;;
58842;SDS011;44614;54.356;10.100;2022-10-31T04:43:10;58.08;;;16.85;;
58842;SDS011;44614;54.356;10.100;2022-10-31T04:45:35;38.88;;;14.18;;
58842;SDS011;44614;54.356;10.100;2022-10-31T04:48:00;34.00;;;14.07;;
58842;SDS011;44614;54.356;10.100;2022-10-31T04:50:26;81.38;;;16.15;;
58842;SDS011;44614;54.356;10.100;2022-10-31T04:52:51;45.45;;;16.08;;
58842;SDS011;44614;54.356;10.100;2022-10-31T04:55:17;40.75;;;16.27;;
58842;SDS011;44614;54.356;10.100;2022-10-31T04:57:43;62.10;;;17.35;;
58842;SDS011;44614;54.356;10.100;2022-10-31T05:00:10;38.03;;;14.27;;
58842;SDS011;44614;54.356;10.100;2022-10-31T05:05:15;42.90;;;14.32;;
58842;SDS011;44614;54.356;10.100;2022-10-31T05:07:44;32.80;;;14.57;;
58842;SDS011;44614;54.356;10.100;2022-10-31T05:10:11;37.78;;;14.32;;
58842;SDS011;44614;54.356;10.100;2022-10-31T05:12:45;31.17;;;13.68;;
58842;SDS011;44614;54.356;10.100;2022-10-31T05:15:15;39.65;;;13.95;;
58842;SDS011;44614;54.356;10.100;2022-10-31T05:17:41;35.53;;;14.65;;
58842;SDS011;44614;54.356;10.100;2022-10-31T05:20:07;38.63;;;13.88;;
58842;SDS011;44614;54.356;10.100;2022-10-31T05:22:33;37.45;;;14.15;;
58842;SDS011;44614;54.356;10.100;2022-10-31T05:24:58;40.80;;;13.48;;
58842;SDS011;44614;54.356;10.100;2022-10-31T05:27:23;45.28;;;12.15;;
58842;SDS011;44614;54.356;10.100;2022-10-31T05:29:49;34.10;;;15.80;;
58842;SDS011;44614;54.356;10.100;2022-10-31T05:32:14;30.55;;;13.27;;
58842;SDS011;44614;54.356;10.100;2022-10-31T05:34:39;34.08;;;14.05;;
58842;SDS011;44614;54.356;10.100;2022-10-31T05:37:05;33.63;;;15.00;;
58842;SDS011;44614;54.356;10.100;2022-10-31T05:39:30;33.60;;;13.38;;
58842;SDS011;44614;54.356;10.100;2022-10-31T05:41:55;40.35;;;14.45;;
58842;SDS011;44614;54.356;10.100;2022-10-31T05:44:20;33.38;;;13.55;;
58842;SDS011;44614;54.356;10.100;2022-10-31T05:46:46;30.38;;;14.23;;
58842;SDS011;44614;54.356;10.100;2022-10-31T05:49:12;31.55;;;12.68;;
58842;SDS011;44614;54.356;10.100;2022-10-31T05:51:37;27.77;;;12.27;;
58842;SDS011;44614;54.356;10.100;2022-10-31T05:54:03;38.08;;;13.95;;
58842;SDS011;44614;54.356;10.100;2022-10-31T05:56:28;28.98;;;11.95;;
58842;SDS011;44614;54.356;10.100;2022-10-31T05:58:53;33.28;;;12.30;;
58842;SDS011;44614;54.356;10.100;2022-10-31T06:01:19;43.75;;;13.02;;
58842;SDS011;44614;54.356;10.100;2022-10-31T06:03:44;35.22;;;13.68;;
58842;SDS011;44614;54.356;10.100;2022-10-31T06:06:09;29.65;;;12.00;;
58842;SDS011;44614;54.356;10.100;2022-10-31T06:08:35;30.05;;;11.55;;
58842;SDS011;44614;54.356;10.100;2022-10-31T06:11:00;41.08;;;12.55;;
58842;SDS011;44614;54.356;10.100;2022-10-31T06:13:26;28.75;;;11.77;;
58842;SDS011;44614;54.356;10.100;2022-10-31T06:15:51;32.20;;;12.55;;
58842;SDS011;44614;54.356;10.100;2022-10-31T06:18:16;34.50;;;12.23;;
58842;SDS011;44614;54.356;10.100;2022-10-31T06:20:42;25.00;;;11.82;;
58842;SDS011;44614;54.356;10.100;2022-10-31T06:23:07;27.23;;;12.75;;
58842;SDS011;44614;54.356;10.100;2022-10-31T06:25:32;36.83;;;11.13;;
58842;SDS011;44614;54.356;10.100;2022-10-31T06:27:58;34.13;;;12.48;;
58842;SDS011;44614;54.356;10.100;2022-10-31T06:30:23;41.25;;;12.05;;
58842;SDS011;44614;54.356;10.100;2022-10-31T06:32:49;23.83;;;11.43;;
58842;SDS011;44614;54.356;10.100;2022-10-31T06:35:14;32.45;;;12.27;;
58842;SDS011;44614;54.356;10.100;2022-10-31T06:37:40;31.80;;;12.80;;
58842;SDS011;44614;54.356;10.100;2022-10-31T06:40:05;29.77;;;11.23;;
58842;SDS011;44614;54.356;10.100;2022-10-31T06:42:31;43.55;;;13.18;;
58842;SDS011;44614;54.356;10.100;2022-10-31T06:44:56;46.70;;;14.65;;
58842;SDS011;44614;54.356;10.100;2022-10-31T06:47:22;43.88;;;11.82;;
58842;SDS011;44614;54.356;10.100;2022-10-31T06:49:47;32.90;;;11.57;;
58842;SDS011;44614;54.356;10.100;2022-10-31T06:52:12;55.30;;;12.05;;
58842;SDS011;44614;54.356;10.100;2022-10-31T06:54:38;39.53;;;11.75;;
58842;SDS011;44614;54.356;10.100;2022-10-31T06:57:03;47.03;;;12.40;;
58842;SDS011;44614;54.356;10.100;2022-10-31T06:59:28;76.15;;;13.85;;
58842;SDS011;44614;54.356;10.100;2022-10-31T07:01:54;67.65;;;12.48;;
58842;SDS011;44614;54.356;10.100;2022-10-31T07:04:19;97.82;;;14.25;;
58842;SDS011;44614;54.356;10.100;2022-10-31T07:06:44;95.10;;;13.70;;
58842;SDS011;44614;54.356;10.100;2022-10-31T07:09:10;46.83;;;10.20;;
58842;SDS011;44614;54.356;10.100;2022-10-31T07:11:35;77.32;;;12.60;;
58842;SDS011;44614;54.356;10.100;2022-10-31T07:14:00;51.92;;;11.02;;
58842;SDS011;44614;54.356;10.100;2022-10-31T07:16:26;37.45;;;9.38;;
58842;SDS011;44614;54.356;10.100;2022-10-31T07:18:51;47.70;;;10.55;;
58842;SDS011;44614;54.356;10.100;2022-10-31T07:21:17;20.38;;;8.50;;
58842;SDS011;44614;54.356;10.100;2022-10-31T07:23:42;21.77;;;8.55;;
58842;SDS011;44614;54.356;10.100;2022-10-31T07:26:08;76.22;;;12.35;;
58842;SDS011;44614;54.356;10.100;2022-10-31T07:28:35;40.17;;;10.18;;
58842;SDS011;44614;54.356;10.100;2022-10-31T07:31:00;37.38;;;11.32;;
58842;SDS011;44614;54.356;10.100;2022-10-31T07:33:25;49.55;;;11.07;;
58842;SDS011;44614;54.356;10.100;2022-10-31T07:35:51;35.38;;;10.27;;
58842;SDS011;44614;54.356;10.100;2022-10-31T07:38:17;29.83;;;9.10;;
58842;SDS011;44614;54.356;10.100;2022-10-31T07:40:43;38.45;;;8.68;;
58842;SDS011;44614;54.356;10.100;2022-10-31T07:43:10;29.45;;;10.02;;
58842;SDS011;44614;54.356;10.100;2022-10-31T07:45:37;36.17;;;9.05;;
58842;SDS011;44614;54.356;10.100;2022-10-31T07:48:02;18.85;;;8.88;;
58842;SDS011;44614;54.356;10.100;2022-10-31T07:50:28;36.25;;;10.30;;
58842;SDS011;44614;54.356;10.100;2022-10-31T07:53:01;29.05;;;8.65;;
58842;SDS011;44614;54.356;10.100;2022-10-31T07:55:29;31.27;;;10.50;;
58842;SDS011;44614;54.356;10.100;2022-10-31T07:58:02;48.38;;;9.95;;
58842;SDS011;44614;54.356;10.100;2022-10-31T08:00:32;40.13;;;9.55;;
58842;SDS011;44614;54.356;10.100;2022-10-31T08:03:02;21.85;;;9.88;;
58842;SDS011;44614;54.356;10.100;2022-10-31T08:05:30;49.95;;;11.23;;
58842;SDS011;44614;54.356;10.100;2022-10-31T08:07:56;40.83;;;9.27;;
58842;SDS011;44614;54.356;10.100;2022-10-31T08:10:22;22.55;;;6.68;;
58842;SDS011;44614;54.356;10.100;2022-10-31T08:13:02;19.02;;;7.18;;
58842;SDS011;44614;54.356;10.100;2022-10-31T08:15:39;26.33;;;9.52;;
58842;SDS011;44614;54.356;10.100;2022-10-31T08:18:07;38.42;;;9.80;;
58842;SDS011;44614;54.356;10.100;2022-10-31T08:20:37;34.63;;;8.50;;
58842;SDS011;44614;54.356;10.100;2022-10-31T08:23:03;34.20;;;8.95;;
58842;SDS011;44614;54.356;10.100;2022-10-31T08:25:30;35.25;;;9.52;;
58842;SDS011;44614;54.356;10.100;2022-10-31T08:27:57;23.42;;;7.93;;
58842;SDS011;44614;54.356;10.100;2022-10-31T08:30:23;48.78;;;11.25;;
58842;SDS011;44614;54.356;10.100;2022-10-31T08:33:03;57.80;;;8.52;;
58842;SDS011;44614;54.356;10.100;2022-10-31T08:35:32;34.70;;;9.48;;
58842;SDS011;44614;54.356;10.100;2022-10-31T08:37:58;19.27;;;6.40;;
58842;SDS011;44614;54.356;10.100;2022-10-31T08:40:24;15.27;;;7.47;;
58842;SDS011;44614;54.356;10.100;2022-10-31T08:45:27;40.30;;;8.00;;
58842;SDS011;44614;54.356;10.100;2022-10-31T08:47:56;39.85;;;7.00;;
58842;SDS011;44614;54.356;10.100;2022-10-31T08:50:26;28.02;;;6.90;;
58842;SDS011;44614;54.356;10.100;2022-10-31T08:52:52;19.45;;;6.10;;
58842;SDS011;44614;54.356;10.100;2022-10-31T08:55:17;13.07;;;6.18;;
58842;SDS011;44614;54.356;10.100;2022-10-31T08:57:43;13.55;;;5.75;;
58842;SDS011;44614;54.356;10.100;2022-10-31T09:00:08;27.98;;;7.85;;
58842;SDS011;44614;54.356;10.100;2022-10-31T09:02:34;27.63;;;7.53;;
58842;SDS011;44614;54.356;10.100;2022-10-31T09:04:59;24.27;;;6.70;;
58842;SDS011;44614;54.356;10.100;2022-10-31T09:07:25;23.23;;;6.10;;
58842;SDS011;44614;54.356;10.100;2022-10-31T09:09:50;14.25;;;5.78;;
58842;SDS011;44614;54.356;10.100;2022-10-31T09:12:16;29.40;;;8.95;;
58842;SDS011;44614;54.356;10.100;2022-10-31T09:14:41;16.38;;;3.90;;
58842;SDS011;44614;54.356;10.100;2022-10-31T09:17:06;19.85;;;7.00;;
58842;SDS011;44614;54.356;10.100;2022-10-31T09:19:32;14.83;;;6.23;;
58842;SDS011;44614;54.356;10.100;2022-10-31T09:21:57;23.55;;;4.20;;
58842;SDS011;44614;54.356;10.100;2022-10-31T09:24:22;11.32;;;3.45;;
58842;SDS011;44614;54.356;10.100;2022-10-31T09:26:48;15.53;;;4.07;;
58842;SDS011;44614;54.356;10.100;2022-10-31T09:29:13;11.40;;;4.90;;
58842;SDS011;44614;54.356;10.100;2022-10-31T09:31:38;14.48;;;4.70;;
58842;SDS011;44614;54.356;10.100;2022-10-31T09:34:03;14.25;;;4.80;;
58842;SDS011;44614;54.356;10.100;2022-10-31T09:36:29;11.75;;;4.45;;
58842;SDS011;44614;54.356;10.100;2022-10-31T09:38:54;20.27;;;5.22;;
58842;SDS011;44614;54.356;10.100;2022-10-31T09:41:44;20.45;;;4.60;;
58842;SDS011;44614;54.356;10.100;2022-10-31T09:44:19;11.63;;;5.13;;
58842;SDS011;44614;54.356;10.100;2022-10-31T09:49:31;11.55;;;4.28;;
58842;SDS011;44614;54.356;10.100;2022-10-31T09:54:46;14.20;;;4.20;;
58842;SDS011;44614;54.356;10.100;2022-10-31T09:59:45;10.88;;;3.83;;
58842;SDS011;44614;54.356;10.100;2022-10-31T10:02:21;11.45;;;4.72;;
58842;SDS011;44614;54.356;10.100;2022-10-31T10:09:59;15.50;;;4.70;;
58842;SDS011;44614;54.356;10.100;2022-10-31T10:15:19;16.10;;;5.18;;
58842;SDS011;44614;54.356;10.100;2022-10-31T10:18:13;12.70;;;4.57;;
58842;SDS011;44614;54.356;10.100;2022-10-31T10:21:25;11.32;;;4.97;;
58842;SDS011;44614;54.356;10.100;2022-10-31T10:26:42;14.65;;;5.47;;
58842;SDS011;44614;54.356;10.100;2022-10-31T10:32:00;13.33;;;5.90;;
58842;SDS011;44614;54.356;10.100;2022-10-31T10:34:35;16.45;;;5.45;;
58842;SDS011;44614;54.356;10.100;2022-10-31T10:37:08;14.88;;;5.18;;
58842;SDS011;44614;54.356;10.100;2022-10-31T10:39:44;15.88;;;5.47;;
58842;SDS011;44614;54.356;10.100;2022-10-31T10:42:13;9.13;;;4.00;;
58842;SDS011;44614;54.356;10.100;2022-10-31T10:44:59;5.20;;;2.65;;
58842;SDS011;44614;54.356;10.100;2022-10-31T10:47:51;6.07;;;2.03;;
58842;SDS011;44614;54.356;10.100;2022-10-31T10:50:23;7.25;;;2.42;;
58842;SDS011;44614;54.356;10.100;2022-10-31T10:56:03;3.15;;;2.28;;
58842;SDS011;44614;54.356;10.100;2022-10-31T10:58:37;3.20;;;1.75;;
58842;SDS011;44614;54.356;10.100;2022-10-31T11:01:08;4.32;;;1.88;;
58842;SDS011;44614;54.356;10.100;2022-10-31T11:03:36;4.88;;;1.92;;
58842;SDS011;44614;54.356;10.100;2022-10-31T11:06:01;5.47;;;1.40;;
58842;SDS011;44614;54.356;10.100;2022-10-31T11:08:34;5.20;;;1.67;;
58842;SDS011;44614;54.356;10.100;2022-10-31T11:13:27;6.72;;;2.17;;
58842;SDS011;44614;54.356;10.100;2022-10-31T11:16:53;9.30;;;1.93;;
58842;SDS011;44614;54.356;10.100;2022-10-31T11:18:53;5.80;;;2.65;;
58842;SDS011;44614;54.356;10.100;2022-10-31T11:21:30;6.85;;;2.13;;
58842;SDS011;44614;54.356;10.100;2022-10-31T11:24:17;7.78;;;2.38;;
58842;SDS011;44614;54.356;10.100;2022-10-31T11:26:45;6.18;;;2.55;;
58842;SDS011;44614;54.356;10.100;2022-10-31T11:29:17;7.65;;;2.25;;
58842;SDS011;44614;54.356;10.100;2022-10-31T11:31:46;10.00;;;3.28;;
58842;SDS011;44614;54.356;10.100;2022-10-31T11:34:18;3.28;;;1.85;;
58842;SDS011;44614;54.356;10.100;2022-10-31T11:36:56;8.13;;;2.58;;
58842;SDS011;44614;54.356;10.100;2022-10-31T11:39:28;5.63;;;2.17;;
58842;SDS011;44614;54.356;10.100;2022-10-31T11:41:53;8.53;;;3.27;;
58842;SDS011;44614;54.356;10.100;2022-10-31T11:44:24;3.77;;;1.57;;
58842;SDS011;44614;54.356;10.100;2022-10-31T11:46:56;4.15;;;2.17;;
58842;SDS011;44614;54.356;10.100;2022-10-31T11:51:56;9.20;;;2.88;;
58842;SDS011;44614;54.356;10.100;2022-10-31T11:54:25;11.07;;;3.33;;
58842;SDS011;44614;54.356;10.100;2022-10-31T11:56:57;8.30;;;2.95;;
58842;SDS011;44614;54.356;10.100;2022-10-31T11:59:30;9.73;;;3.53;;
58842;SDS011;44614;54.356;10.100;2022-10-31T12:01:58;10.48;;;3.97;;
58842;SDS011;44614;54.356;10.100;2022-10-31T12:04:28;10.32;;;3.75;;
58842;SDS011;44614;54.356;10.100;2022-10-31T12:07:06;12.25;;;3.92;;
58842;SDS011;44614;54.356;10.100;2022-10-31T12:09:33;8.80;;;3.60;;
58842;SDS011;44614;54.356;10.100;2022-10-31T12:18:00;15.32;;;4.85;;
58842;SDS011;44614;54.356;10.100;2022-10-31T12:23:42;9.30;;;4.57;;
58842;SDS011;44614;54.356;10.100;2022-10-31T12:32:21;12.88;;;6.05;;
58842;SDS011;44614;54.356;10.100;2022-10-31T12:37:44;14.50;;;4.75;;
58842;SDS011;44614;54.356;10.100;2022-10-31T12:45:55;11.70;;;4.77;;
58842;SDS011;44614;54.356;10.100;2022-10-31T12:51:09;15.30;;;6.07;;
58842;SDS011;44614;54.356;10.100;2022-10-31T12:53:41;10.98;;;4.75;;
58842;SDS011;44614;54.356;10.100;2022-10-31T13:01:36;7.13;;;3.15;;
58842;SDS011;44614;54.356;10.100;2022-10-31T13:04:05;7.40;;;3.58;;
58842;SDS011;44614;54.356;10.100;2022-10-31T13:06:43;7.70;;;2.53;;
58842;SDS011;44614;54.356;10.100;2022-10-31T13:09:22;10.80;;;2.65;;
58842;SDS011;44614;54.356;10.100;2022-10-31T13:12:04;15.82;;;3.70;;
58842;SDS011;44614;54.356;10.100;2022-10-31T13:17:39;9.98;;;3.60;;
58842;SDS011;44614;54.356;10.100;2022-10-31T13:20:20;12.57;;;4.47;;
58842;SDS011;44614;54.356;10.100;2022-10-31T13:22:48;8.73;;;3.30;;
58842;SDS011;44614;54.356;10.100;2022-10-31T13:25:20;9.15;;;3.25;;
58842;SDS011;44614;54.356;10.100;2022-10-31T13:30:33;6.93;;;2.90;;
58842;SDS011;44614;54.356;10.100;2022-10-31T13:46:35;8.98;;;3.35;;
58842;SDS011;44614;54.356;10.100;2022-10-31T13:49:00;10.85;;;3.08;;
58842;SDS011;44614;54.356;10.100;2022-10-31T13:51:27;8.77;;;3.80;;
58842;SDS011;44614;54.356;10.100;2022-10-31T13:56:21;9.10;;;2.77;;
58842;SDS011;44614;54.356;10.100;2022-10-31T13:59:05;7.00;;;3.58;;
58842;SDS011;44614;54.356;10.100;2022-10-31T14:01:48;7.45;;;3.00;;
58842;SDS011;44614;54.356;10.100;2022-10-31T14:06:58;7.50;;;2.65;;
58842;SDS011;44614;54.356;10.100;2022-10-31T14:09:32;13.88;;;2.78;;
58842;SDS011;44614;54.356;10.100;2022-10-31T14:12:02;9.20;;;2.53;;
58842;SDS011;44614;54.356;10.100;2022-10-31T14:14:33;10.18;;;3.90;;
58842;SDS011;44614;54.356;10.100;2022-10-31T14:17:21;6.30;;;3.17;;
58842;SDS011;44614;54.356;10.100;2022-10-31T14:20:24;7.20;;;4.03;;
58842;SDS011;44614;54.356;10.100;2022-10-31T14:22:41;6.88;;;2.92;;
58842;SDS011;44614;54.356;10.100;2022-10-31T14:27:51;8.30;;;3.22;;
58842;SDS011;44614;54.356;10.100;2022-10-31T14:30:19;9.57;;;3.60;;
58842;SDS011;44614;54.356;10.100;2022-10-31T14:38:29;6.78;;;2.92;;
58842;SDS011;44614;54.356;10.100;2022-10-31T14:50:08;11.77;;;2.70;;
58842;SDS011;44614;54.356;10.100;2022-10-31T14:52:55;6.80;;;3.60;;
58842;SDS011;44614;54.356;10.100;2022-10-31T14:55:22;9.35;;;3.28;;
58842;SDS011;44614;54.356;10.100;2022-10-31T15:05:21;7.90;;;3.45;;
58842;SDS011;44614;54.356;10.100;2022-10-31T15:07:53;10.57;;;3.43;;
58842;SDS011;44614;54.356;10.100;2022-10-31T15:10:22;7.18;;;2.50;;
58842;SDS011;44614;54.356;10.100;2022-10-31T15:12:56;12.43;;;4.20;;
58842;SDS011;44614;54.356;10.100;2022-10-31T15:15:44;5.07;;;2.40;;
58842;SDS011;44614;54.356;10.100;2022-10-31T15:18:17;7.57;;;3.17;;
58842;SDS011;44614;54.356;10.100;2022-10-31T15:20:44;7.85;;;3.47;;
58842;SDS011;44614;54.356;10.100;2022-10-31T15:23:16;10.43;;;4.57;;
58842;SDS011;44614;54.356;10.100;2022-10-31T15:25:48;10.07;;;3.33;;
58842;SDS011;44614;54.356;10.100;2022-10-31T15:28:23;7.50;;;2.83;;
58842;SDS011;44614;54.356;10.100;2022-10-31T15:30:51;8.13;;;4.00;;
58842;SDS011;44614;54.356;10.100;2022-10-31T15:33:22;10.02;;;3.53;;
58842;SDS011;44614;54.356;10.100;2022-10-31T15:35:59;10.60;;;4.13;;
58842;SDS011;44614;54.356;10.100;2022-10-31T15:38:26;14.43;;;5.18;;
58842;SDS011;44614;54.356;10.100;2022-10-31T15:43:20;11.15;;;3.85;;
58842;SDS011;44614;54.356;10.100;2022-10-31T15:45:46;10.13;;;4.93;;
58842;SDS011;44614;54.356;10.100;2022-10-31T15:48:18;32.72;;;15.30;;
58842;SDS011;44614;54.356;10.100;2022-10-31T15:50:57;15.10;;;4.50;;
58842;SDS011;44614;54.356;10.100;2022-10-31T15:55:57;15.90;;;7.10;;
58842;SDS011;44614;54.356;10.100;2022-10-31T15:58:30;18.23;;;8.43;;
58842;SDS011;44614;54.356;10.100;2022-10-31T16:01:01;15.98;;;5.93;;
58842;SDS011;44614;54.356;10.100;2022-10-31T16:03:29;10.00;;;4.38;;
58842;SDS011;44614;54.356;10.100;2022-10-31T16:05:57;15.60;;;5.60;;
58842;SDS011;44614;54.356;10.100;2022-10-31T16:10:56;11.65;;;4.38;;
58842;SDS011;44614;54.356;10.100;2022-10-31T16:13:26;11.10;;;4.40;;
58842;SDS011;44614;54.356;10.100;2022-10-31T16:15:56;17.30;;;8.10;;
58842;SDS011;44614;54.356;10.100;2022-10-31T16:18:25;14.65;;;5.22;;
58842;SDS011;44614;54.356;10.100;2022-10-31T16:20:52;12.35;;;5.15;;
58842;SDS011;44614;54.356;10.100;2022-10-31T16:23:20;12.25;;;6.32;;
58842;SDS011;44614;54.356;10.100;2022-10-31T16:25:49;10.38;;;3.60;;
58842;SDS011;44614;54.356;10.100;2022-10-31T16:28:16;19.23;;;7.03;;
58842;SDS011;44614;54.356;10.100;2022-10-31T16:30:44;25.83;;;8.65;;
58842;SDS011;44614;54.356;10.100;2022-10-31T16:35:48;14.15;;;5.68;;
58842;SDS011;44614;54.356;10.100;2022-10-31T16:38:14;22.23;;;9.80;;
58842;SDS011;44614;54.356;10.100;2022-10-31T16:40:39;15.77;;;7.25;;
58842;SDS011;44614;54.356;10.100;2022-10-31T16:43:09;15.05;;;5.68;;
58842;SDS011;44614;54.356;10.100;2022-10-31T16:45:37;14.65;;;6.55;;
58842;SDS011;44614;54.356;10.100;2022-10-31T16:48:11;11.02;;;5.13;;
58842;SDS011;44614;54.356;10.100;2022-10-31T16:50:39;20.25;;;8.98;;
58842;SDS011;44614;54.356;10.100;2022-10-31T16:53:06;16.05;;;6.35;;
58842;SDS011;44614;54.356;10.100;2022-10-31T16:55:31;43.60;;;17.20;;
58842;SDS011;44614;54.356;10.100;2022-10-31T16:58:00;17.02;;;6.47;;
58842;SDS011;44614;54.356;10.100;2022-10-31T17:00:26;13.07;;;5.97;;
58842;SDS011;44614;54.356;10.100;2022-10-31T17:02:53;12.98;;;7.22;;